map of NDZ home
Great Circle Mapper logo
NDZ - Airport
Location
City:  Nordholz-Spieka, Lower Saxony, Germany
Name:Cuxhaven
ICAO / IATA:ETMN / NDZ

Details
Type:Airport (Flugplatz, Airfield)
Use:Military
Latitude:5346'04"N (53.767667)
Longitude:839'31"E (8.658500)
Elevation:74 ft (23 m)
Runways:1
Longest:8002 × 148 ft (2439 × 45 m), paved

Time
Time Zone:UTC+1 (DST+2)
Local Time:

Weather
METAR:ETMN 301420Z 15008KT 4500 BR BKN012 10/07 Q1023 GRN GRN

Related Locations
Nearby:
Farthest:CHT: 11705 mi / 18837 km
Waitangi [Tuuta], Chatham Islands, NZ

Find:

   beyond  
but within

Other Information
Maps:
NOTAMs:
Links:
Sources:

  
flag of Germany
flag of Lower Saxony
  

Sectional Chart

Flight Planning
at skyvector.com

Satellite Image

Google Maps Satellite View

 

Copyright © 2004-2014 Karl L. Swartz. All rights reserved.
The Great Circle Mapper name and logo are trademarks of the Great Circle Mapper.
All other trademarks mentioned herein belong to their respective owners.
Please see credits for attibutions and further copyright information.

  Follow gcmap on Facebook Follow gcmap on Twitter

hCard Microformat

Geo Microformat